createdAt,value
2022-09-12T00:00:21.383Z,11.15
2022-09-12T00:02:47.720Z,11.13
2022-09-12T00:05:14.135Z,11.10
2022-09-12T00:07:40.626Z,11.08
2022-09-12T00:10:07.252Z,11.08
2022-09-12T00:12:33.609Z,11.09
2022-09-12T00:14:59.960Z,11.08
2022-09-12T00:17:26.312Z,10.98
2022-09-12T00:19:52.602Z,11.00
2022-09-12T00:22:19.003Z,10.97
2022-09-12T00:24:45.497Z,10.97
2022-09-12T00:27:11.871Z,10.93
2022-09-12T00:29:38.270Z,10.88
2022-09-12T00:32:04.659Z,10.85
2022-09-12T00:34:31.090Z,10.83
2022-09-12T00:36:57.423Z,10.81
2022-09-12T00:39:24.033Z,10.87
2022-09-12T00:41:50.431Z,10.91
2022-09-12T00:44:22.935Z,10.92
2022-09-12T00:47:05.110Z,10.90
2022-09-12T00:50:00.995Z,10.86
2022-09-12T00:52:46.708Z,10.81
2022-09-12T00:55:19.433Z,10.74
2022-09-12T00:58:01.953Z,10.72
2022-09-12T01:00:28.798Z,10.68
2022-09-12T01:03:00.022Z,10.64
2022-09-12T01:05:29.766Z,10.64
2022-09-12T01:07:57.029Z,10.59
2022-09-12T01:10:24.023Z,10.57
2022-09-12T01:12:50.599Z,10.56
2022-09-12T01:15:17.029Z,10.54
2022-09-12T01:18:01.951Z,10.59
2022-09-12T01:20:59.192Z,10.61
2022-09-12T01:24:01.679Z,10.58
2022-09-12T01:26:47.998Z,10.52
2022-09-12T01:29:33.611Z,10.45
2022-09-12T01:32:14.872Z,10.43
2022-09-12T01:34:59.076Z,10.36
2022-09-12T01:37:33.363Z,10.28
2022-09-12T01:40:25.083Z,10.23
2022-09-12T01:43:02.511Z,10.20
2022-09-12T01:45:44.045Z,10.15
2022-09-12T01:48:19.681Z,10.12
2022-09-12T01:50:55.357Z,10.10
2022-09-12T01:53:33.580Z,10.17
2022-09-12T01:56:11.495Z,10.11
2022-09-12T01:58:52.243Z,10.10
2022-09-12T02:01:27.292Z,10.09
2022-09-12T02:04:18.093Z,10.09
2022-09-12T02:06:49.600Z,10.08
2022-09-12T02:09:44.445Z,10.07
2022-09-12T02:12:14.760Z,10.08
2022-09-12T02:14:46.212Z,10.09
2022-09-12T02:17:24.550Z,10.14
2022-09-12T02:20:06.357Z,10.15
2022-09-12T02:22:37.293Z,10.11
2022-09-12T02:25:08.021Z,10.07
2022-09-12T02:27:42.846Z,10.01
2022-09-12T02:30:10.523Z,10.02
2022-09-12T02:33:07.101Z,9.92
2022-09-12T02:35:43.025Z,9.83
2022-09-12T02:38:17.583Z,9.72
2022-09-12T02:40:45.211Z,9.64
2022-09-12T02:43:11.878Z,9.61
2022-09-12T02:45:38.408Z,9.66
2022-09-12T02:48:09.026Z,9.68
2022-09-12T02:50:36.189Z,9.69
2022-09-12T02:53:03.452Z,9.68
2022-09-12T02:55:31.009Z,9.74
2022-09-12T02:57:57.401Z,9.71
2022-09-12T03:00:25.004Z,9.69
2022-09-12T03:03:15.262Z,9.70
2022-09-12T03:05:55.620Z,9.69
2022-09-12T03:08:43.449Z,9.68
2022-09-12T03:11:45.430Z,9.67
2022-09-12T03:14:31.376Z,9.60
2022-09-12T03:17:26.854Z,9.60
2022-09-12T03:20:10.615Z,9.54
2022-09-12T03:22:51.205Z,9.49
2022-09-12T03:25:48.580Z,9.44
2022-09-12T03:28:17.648Z,9.37
2022-09-12T03:30:49.186Z,9.40
2022-09-12T03:33:19.891Z,9.37
2022-09-12T03:35:47.449Z,9.37
2022-09-12T03:38:13.958Z,9.34
2022-09-12T03:40:40.439Z,9.27
2022-09-12T03:43:08.693Z,9.27
2022-09-12T03:45:36.333Z,9.28
2022-09-12T03:48:03.478Z,9.31
2022-09-12T03:50:29.818Z,9.31
2022-09-12T03:52:58.416Z,9.31
2022-09-12T03:55:24.744Z,9.31
2022-09-12T03:57:53.205Z,9.23
2022-09-12T04:00:20.083Z,9.19
2022-09-12T04:02:46.785Z,9.20
2022-09-12T04:05:13.310Z,9.19
2022-09-12T04:07:39.733Z,9.14
2022-09-12T04:10:06.625Z,9.14
2022-09-12T04:12:33.065Z,9.10
2022-09-12T04:14:59.459Z,9.10
2022-09-12T04:17:25.877Z,9.06
2022-09-12T04:19:52.526Z,9.04
2022-09-12T04:22:18.846Z,9.04
2022-09-12T04:24:45.522Z,9.00
2022-09-12T04:27:11.831Z,9.00
2022-09-12T04:29:38.218Z,9.02
2022-09-12T04:32:04.827Z,8.99
2022-09-12T04:34:31.847Z,9.04
2022-09-12T04:36:58.361Z,9.07
2022-09-12T04:39:24.766Z,9.06
2022-09-12T04:41:51.384Z,9.01
2022-09-12T04:44:17.802Z,9.04
2022-09-12T04:46:46.230Z,9.11
2022-09-12T04:49:14.173Z,9.17
2022-09-12T04:51:42.812Z,9.21
2022-09-12T04:54:13.155Z,9.32
2022-09-12T04:56:41.856Z,9.34
2022-09-12T04:59:09.078Z,9.33
2022-09-12T05:01:35.792Z,9.41
2022-09-12T05:04:02.744Z,9.35
2022-09-12T05:06:34.519Z,9.29
2022-09-12T05:09:02.613Z,9.32
2022-09-12T05:11:53.107Z,9.30
2022-09-12T05:14:18.446Z,9.25
2022-09-12T05:16:49.044Z,9.34
2022-09-12T05:19:15.882Z,9.37
2022-09-12T05:21:42.213Z,9.44
2022-09-12T05:24:10.690Z,9.49
2022-09-12T05:26:37.089Z,9.52
2022-09-12T05:29:04.828Z,9.60
2022-09-12T05:31:31.219Z,9.69
2022-09-12T05:33:57.652Z,9.62
2022-09-12T05:36:27.107Z,9.62
2022-09-12T05:38:53.744Z,9.65
2022-09-12T05:41:25.036Z,9.70
2022-09-12T05:44:12.491Z,9.75
2022-09-12T05:46:43.037Z,9.81
2022-09-12T05:49:11.487Z,9.81
2022-09-12T05:51:41.016Z,9.84
2022-09-12T05:54:10.115Z,9.82
2022-09-12T05:56:41.863Z,9.84
2022-09-12T05:59:22.525Z,9.83
2022-09-12T06:01:49.386Z,9.82
2022-09-12T06:04:16.130Z,9.70
2022-09-12T06:06:44.027Z,9.70
2022-09-12T06:09:11.482Z,9.86
2022-09-12T06:11:39.622Z,10.06
2022-09-12T06:14:06.548Z,10.20
2022-09-12T06:16:34.318Z,10.33
2022-09-12T06:19:04.444Z,10.25
2022-09-12T06:21:30.874Z,10.14
2022-09-12T06:23:57.749Z,10.09
2022-09-12T06:26:24.778Z,10.14
2022-09-12T06:28:53.133Z,10.18
2022-09-12T06:31:22.196Z,10.45
2022-09-12T06:33:50.900Z,10.64
2022-09-12T06:36:31.558Z,10.90
2022-09-12T06:39:03.454Z,11.10
2022-09-12T06:41:31.164Z,11.09
2022-09-12T06:43:58.489Z,11.04
2022-09-12T06:46:25.513Z,11.17
2022-09-12T06:48:52.210Z,11.38
2022-09-12T06:51:20.078Z,11.45
2022-09-12T06:53:47.874Z,11.44
2022-09-12T06:56:18.436Z,11.75
2022-09-12T06:58:46.050Z,11.67
2022-09-12T07:01:19.665Z,11.76
2022-09-12T07:03:51.568Z,11.83
2022-09-12T07:06:25.306Z,11.65
2022-09-12T07:08:51.703Z,11.50
2022-09-12T07:11:24.777Z,11.37
2022-09-12T07:13:55.663Z,11.09
2022-09-12T07:16:22.708Z,11.23
2022-09-12T07:18:53.987Z,11.41
2022-09-12T07:21:20.710Z,11.59
2022-09-12T07:23:48.215Z,11.79
2022-09-12T07:26:16.394Z,11.83
2022-09-12T07:28:43.723Z,12.01
2022-09-12T07:31:15.781Z,12.51
2022-09-12T07:33:43.387Z,12.85
2022-09-12T07:36:17.136Z,13.00
2022-09-12T07:38:44.346Z,13.26
2022-09-12T07:41:20.142Z,13.40
2022-09-12T07:43:46.965Z,13.57
2022-09-12T07:46:14.114Z,13.98
2022-09-12T07:48:40.651Z,14.03
2022-09-12T07:51:09.941Z,13.63
2022-09-12T07:53:46.171Z,13.86
2022-09-12T07:56:13.589Z,14.05
2022-09-12T07:58:42.407Z,14.12
2022-09-12T08:01:17.940Z,14.04
2022-09-12T08:03:48.332Z,14.22
2022-09-12T08:06:17.727Z,14.27
2022-09-12T08:08:44.025Z,14.90
2022-09-12T08:11:12.885Z,14.50
2022-09-12T08:13:41.565Z,14.53
2022-09-12T08:16:15.955Z,14.83
2022-09-12T08:18:42.379Z,15.00
2022-09-12T08:21:13.052Z,15.47
2022-09-12T08:23:39.356Z,15.76
2022-09-12T08:26:06.759Z,16.00
2022-09-12T08:28:35.090Z,16.39
2022-09-12T08:31:05.705Z,16.39
2022-09-12T08:33:32.728Z,16.12
2022-09-12T08:36:06.367Z,16.65
2022-09-12T08:38:36.679Z,16.73
2022-09-12T08:41:18.530Z,16.74
2022-09-12T08:43:56.762Z,17.13
2022-09-12T08:46:39.017Z,17.22
2022-09-12T08:49:10.821Z,17.31
2022-09-12T08:51:39.130Z,17.43
2022-09-12T08:54:18.940Z,17.80
2022-09-12T08:56:46.715Z,18.09
2022-09-12T08:59:13.222Z,18.39
2022-09-12T09:01:45.491Z,18.14
2022-09-12T09:04:14.957Z,18.40
2022-09-12T09:07:23.785Z,18.93
2022-09-12T09:10:22.197Z,18.69
2022-09-12T09:12:59.969Z,18.66
2022-09-12T09:16:07.906Z,19.15
2022-09-12T09:18:36.067Z,19.20
2022-09-12T09:21:12.000Z,19.52
2022-09-12T09:23:46.242Z,19.95
2022-09-12T09:26:28.997Z,20.03
2022-09-12T09:29:02.216Z,20.10
2022-09-12T09:31:34.869Z,20.08
2022-09-12T09:34:01.497Z,20.58
2022-09-12T09:36:50.305Z,20.74
2022-09-12T09:39:30.690Z,20.94
2022-09-12T09:42:34.695Z,20.96
2022-09-12T09:45:04.492Z,21.50
2022-09-12T09:47:30.877Z,21.63
2022-09-12T09:49:57.255Z,21.86
2022-09-12T09:52:30.502Z,21.47
2022-09-12T09:54:59.927Z,21.39
2022-09-12T09:57:35.158Z,21.19
2022-09-12T10:00:28.529Z,21.88
2022-09-12T10:03:19.574Z,22.16
2022-09-12T10:05:50.017Z,22.05
2022-09-12T10:08:22.777Z,22.25
2022-09-12T10:10:58.461Z,22.52
2022-09-12T10:13:34.506Z,22.57
2022-09-12T10:16:16.618Z,22.76
2022-09-12T10:18:43.523Z,22.49
2022-09-12T10:21:16.461Z,22.54
2022-09-12T10:23:43.505Z,22.92
2022-09-12T10:26:12.802Z,22.81
2022-09-12T10:28:43.845Z,23.03
2022-09-12T10:31:15.318Z,23.26
2022-09-12T10:33:48.364Z,22.73
2022-09-12T10:36:15.735Z,22.96
2022-09-12T10:38:50.448Z,23.11
2022-09-12T10:41:17.972Z,23.50
2022-09-12T10:43:45.000Z,23.48
2022-09-12T10:46:28.673Z,23.80
2022-09-12T10:49:19.436Z,23.46
2022-09-12T10:51:45.917Z,23.34
2022-09-12T10:54:12.862Z,23.57
2022-09-12T10:56:47.845Z,23.80
2022-09-12T10:59:28.779Z,23.91
2022-09-12T11:02:25.971Z,23.95
2022-09-12T11:05:08.901Z,24.07
2022-09-12T11:07:43.145Z,23.81
2022-09-12T11:10:26.112Z,23.78
2022-09-12T11:13:21.433Z,23.76
2022-09-12T11:15:56.777Z,23.89
2022-09-12T11:18:33.665Z,24.08
2022-09-12T11:21:06.789Z,24.20
2022-09-12T11:24:04.844Z,23.91
2022-09-12T11:26:43.950Z,23.95
2022-09-12T11:29:27.921Z,24.31
2022-09-12T11:32:21.717Z,24.33
2022-09-12T11:35:17.972Z,24.77
2022-09-12T11:38:08.925Z,24.30
2022-09-12T11:40:48.331Z,24.75
2022-09-12T11:43:48.454Z,24.85
2022-09-12T11:46:34.790Z,24.37
2022-09-12T11:49:10.645Z,24.79
2022-09-12T11:51:57.770Z,25.25
2022-09-12T11:54:59.113Z,24.99
2022-09-12T11:57:25.415Z,25.10
2022-09-12T11:59:59.876Z,25.45
2022-09-12T12:02:29.467Z,25.20
2022-09-12T12:05:06.599Z,25.11
2022-09-12T12:07:45.614Z,25.31
2022-09-12T12:10:31.791Z,25.19
2022-09-12T12:13:00.550Z,25.53
2022-09-12T12:15:28.702Z,25.25
2022-09-12T12:18:25.452Z,25.27
2022-09-12T12:20:53.448Z,25.10
2022-09-12T12:23:23.657Z,25.17
2022-09-12T12:25:54.477Z,24.64
2022-09-12T12:29:00.097Z,24.61
2022-09-12T12:31:26.696Z,24.87
2022-09-12T12:33:55.436Z,24.82
2022-09-12T12:36:41.268Z,25.26
2022-09-12T12:39:32.663Z,24.85
2022-09-12T12:42:01.976Z,25.09
2022-09-12T12:44:43.842Z,25.05
2022-09-12T12:47:22.675Z,25.02
2022-09-12T12:50:22.642Z,25.23
2022-09-12T12:52:59.253Z,24.91
2022-09-12T12:55:48.902Z,24.74
2022-09-12T12:58:38.268Z,25.01
2022-09-12T13:01:17.006Z,24.81
2022-09-12T13:03:46.384Z,25.25
2022-09-12T13:06:34.260Z,25.20
2022-09-12T13:09:05.826Z,25.41
2022-09-12T13:11:36.613Z,25.29
2022-09-12T13:14:05.991Z,25.32
2022-09-12T13:16:51.649Z,25.32
2022-09-12T13:19:26.460Z,25.53
2022-09-12T13:22:06.565Z,25.83
2022-09-12T13:24:33.809Z,26.06
2022-09-12T13:27:00.295Z,26.01
2022-09-12T13:29:28.161Z,25.55
2022-09-12T13:31:58.123Z,24.79
2022-09-12T13:34:56.779Z,24.55
2022-09-12T13:37:34.862Z,24.87
2022-09-12T13:40:22.874Z,25.31
2022-09-12T13:42:49.787Z,25.27
2022-09-12T13:45:22.726Z,24.63
2022-09-12T13:47:57.961Z,24.78
2022-09-12T13:50:28.837Z,25.10
2022-09-12T13:53:00.037Z,24.98
2022-09-12T13:55:33.677Z,25.52
2022-09-12T13:58:03.593Z,25.31
2022-09-12T14:00:32.052Z,25.30
2022-09-12T14:03:00.120Z,24.96
2022-09-12T14:05:26.772Z,25.18
2022-09-12T14:08:01.109Z,24.61
2022-09-12T14:10:33.624Z,24.56
2022-09-12T14:13:23.946Z,24.83
2022-09-12T14:15:51.657Z,24.80
2022-09-12T14:18:29.714Z,24.90
2022-09-12T14:21:09.163Z,25.07
2022-09-12T14:23:40.108Z,25.11
2022-09-12T14:26:10.957Z,25.31
2022-09-12T14:28:40.632Z,25.43
2022-09-12T14:31:30.176Z,25.49
2022-09-12T14:34:17.727Z,25.50
2022-09-12T14:36:50.622Z,25.66
2022-09-12T14:39:19.734Z,25.66
2022-09-12T14:41:46.132Z,25.46
2022-09-12T14:44:25.175Z,25.33
2022-09-12T14:46:52.117Z,25.01
2022-09-12T14:49:25.919Z,25.28
2022-09-12T14:51:53.101Z,24.93
2022-09-12T14:54:28.682Z,24.47
2022-09-12T14:56:56.366Z,24.29
2022-09-12T14:59:34.873Z,24.18
2022-09-12T15:02:19.404Z,24.08
2022-09-12T15:04:51.300Z,24.17
2022-09-12T15:07:33.549Z,24.38
2022-09-12T15:10:03.885Z,24.15
2022-09-12T15:12:30.093Z,24.07
2022-09-12T15:15:20.136Z,24.16
2022-09-12T15:17:46.707Z,24.06
2022-09-12T15:20:14.104Z,24.09
2022-09-12T15:22:41.969Z,24.11
2022-09-12T15:25:10.976Z,24.24
2022-09-12T15:27:37.367Z,24.27
2022-09-12T15:30:04.212Z,24.55
2022-09-12T15:32:30.589Z,24.18
2022-09-12T15:34:56.959Z,24.07
2022-09-12T15:37:24.228Z,23.91
2022-09-12T15:39:51.231Z,23.98
2022-09-12T15:42:24.013Z,23.92
2022-09-12T15:44:50.441Z,23.77
2022-09-12T15:47:16.791Z,23.80
2022-09-12T15:49:43.105Z,23.73
2022-09-12T15:52:15.232Z,23.64
2022-09-12T15:54:42.041Z,23.58
2022-09-12T15:57:08.749Z,23.54
2022-09-12T15:59:35.723Z,23.57
2022-09-12T16:02:02.138Z,23.56
2022-09-12T16:04:29.790Z,23.58
2022-09-12T16:06:56.856Z,23.51
2022-09-12T16:09:23.899Z,23.50
2022-09-12T16:11:50.520Z,23.56
2022-09-12T16:14:18.768Z,23.32
2022-09-12T16:16:52.000Z,23.36
2022-09-12T16:19:18.392Z,23.40
2022-09-12T16:21:44.789Z,23.33
2022-09-12T16:24:11.357Z,23.33
2022-09-12T16:26:37.788Z,23.22
2022-09-12T16:29:04.242Z,23.07
2022-09-12T16:31:30.570Z,22.95
2022-09-12T16:33:56.896Z,22.94
2022-09-12T16:36:23.358Z,22.94
2022-09-12T16:38:51.873Z,22.91
2022-09-12T16:41:20.736Z,22.88
2022-09-12T16:43:47.541Z,23.03
2022-09-12T16:46:19.110Z,22.77
2022-09-12T16:48:51.825Z,22.78
2022-09-12T16:51:22.165Z,22.69
2022-09-12T16:53:49.461Z,22.55
2022-09-12T16:56:15.905Z,22.53
2022-09-12T16:58:43.236Z,22.46
2022-09-12T17:01:12.248Z,22.40
2022-09-12T17:03:39.172Z,22.33
2022-09-12T17:06:17.317Z,22.31
2022-09-12T17:08:46.597Z,22.20
2022-09-12T17:11:15.904Z,22.01
2022-09-12T17:14:03.743Z,21.95
2022-09-12T17:16:32.357Z,21.76
2022-09-12T17:18:58.772Z,21.62
2022-09-12T17:21:25.451Z,21.50
2022-09-12T17:23:51.897Z,21.40
2022-09-12T17:26:18.448Z,21.35
2022-09-12T17:28:44.959Z,21.23
2022-09-12T17:31:13.809Z,21.18
2022-09-12T17:33:41.196Z,21.08
2022-09-12T17:36:16.054Z,20.98
2022-09-12T17:38:43.712Z,20.87
2022-09-12T17:41:16.259Z,20.69
2022-09-12T17:43:44.172Z,20.54
2022-09-12T17:46:10.693Z,20.40
2022-09-12T17:48:37.253Z,20.34
2022-09-12T17:51:14.140Z,20.21
2022-09-12T17:53:41.500Z,20.10
2022-09-12T17:56:08.734Z,20.02
2022-09-12T17:58:35.701Z,19.87
2022-09-12T18:01:04.926Z,19.71
2022-09-12T18:03:31.499Z,19.52
2022-09-12T18:05:57.822Z,19.33
2022-09-12T18:08:24.477Z,19.19
2022-09-12T18:10:51.801Z,19.05
2022-09-12T18:13:18.250Z,18.91
2022-09-12T18:15:44.707Z,18.78
2022-09-12T18:18:11.096Z,18.67
2022-09-12T18:20:37.397Z,18.57
2022-09-12T18:23:03.999Z,18.50
2022-09-12T18:25:30.352Z,18.43
2022-09-12T18:27:57.179Z,18.34
2022-09-12T18:30:23.587Z,18.20
2022-09-12T18:32:50.108Z,18.10
2022-09-12T18:35:16.971Z,17.95
2022-09-12T18:37:43.299Z,17.80
2022-09-12T18:40:10.385Z,17.67
2022-09-12T18:42:36.801Z,17.50
2022-09-12T18:45:03.273Z,17.40
2022-09-12T18:47:29.590Z,17.14
2022-09-12T18:49:55.921Z,17.10
2022-09-12T18:52:23.596Z,17.11
2022-09-12T18:54:50.288Z,17.05
2022-09-12T18:57:16.703Z,17.06
2022-09-12T18:59:43.000Z,16.97
2022-09-12T19:02:15.804Z,16.84
2022-09-12T19:04:42.350Z,16.74
2022-09-12T19:07:08.851Z,16.70
2022-09-12T19:09:35.501Z,16.66
2022-09-12T19:12:02.042Z,16.57
2022-09-12T19:14:28.512Z,16.44
2022-09-12T19:16:54.825Z,16.39
2022-09-12T19:19:21.572Z,16.36
2022-09-12T19:21:48.010Z,16.35
2022-09-12T19:24:14.456Z,16.31
2022-09-12T19:26:41.354Z,16.22
2022-09-12T19:29:08.441Z,16.18
2022-09-12T19:31:34.892Z,16.06
2022-09-12T19:34:02.977Z,16.00
2022-09-12T19:36:46.622Z,15.98
2022-09-12T19:39:13.692Z,15.93
2022-09-12T19:41:40.185Z,15.82
2022-09-12T19:44:06.653Z,15.76
2022-09-12T19:46:33.189Z,15.63
2022-09-12T19:48:59.906Z,15.66
2022-09-12T19:51:26.458Z,15.63
2022-09-12T19:53:52.827Z,15.57
2022-09-12T19:56:19.327Z,15.48
2022-09-12T19:58:50.868Z,15.40
2022-09-12T20:01:23.347Z,15.42
2022-09-12T20:03:50.643Z,15.37
2022-09-12T20:06:17.467Z,15.32
2022-09-12T20:08:44.744Z,15.25
2022-09-12T20:11:14.173Z,15.13
2022-09-12T20:13:40.974Z,15.07
2022-09-12T20:16:15.015Z,14.90
2022-09-12T20:18:45.122Z,14.89
2022-09-12T20:21:20.126Z,14.89
2022-09-12T20:23:46.802Z,14.84
2022-09-12T20:26:13.365Z,14.76
2022-09-12T20:28:40.528Z,14.69
2022-09-12T20:31:12.116Z,14.67
2022-09-12T20:33:39.567Z,14.68
2022-09-12T20:36:17.458Z,14.65
2022-09-12T20:38:49.193Z,14.62
2022-09-12T20:41:16.814Z,14.57
2022-09-12T20:43:43.452Z,14.47
2022-09-12T20:46:10.905Z,14.45
2022-09-12T20:48:38.673Z,14.42
2022-09-12T20:51:05.435Z,14.40
2022-09-12T20:53:34.827Z,14.36
2022-09-12T20:56:02.564Z,14.39
2022-09-12T20:58:28.976Z,14.39
2022-09-12T21:00:55.381Z,14.33
2022-09-12T21:03:21.792Z,14.33
2022-09-12T21:05:49.190Z,14.32
2022-09-12T21:08:15.507Z,14.30
2022-09-12T21:10:43.233Z,14.26
2022-09-12T21:13:13.603Z,14.24
2022-09-12T21:15:41.474Z,14.19
2022-09-12T21:18:08.136Z,14.20
2022-09-12T21:20:34.892Z,14.20
2022-09-12T21:23:01.679Z,14.20
2022-09-12T21:25:28.974Z,14.20
2022-09-12T21:27:55.662Z,14.20
2022-09-12T21:30:22.097Z,14.18
2022-09-12T21:32:48.468Z,14.20
2022-09-12T21:35:14.846Z,14.13
2022-09-12T21:37:41.160Z,14.10
2022-09-12T21:40:07.756Z,14.08
2022-09-12T21:42:34.101Z,14.02
2022-09-12T21:45:00.401Z,13.90
2022-09-12T21:47:26.751Z,13.81
2022-09-12T21:49:53.087Z,13.74
2022-09-12T21:52:19.599Z,13.73
2022-09-12T21:54:45.933Z,13.64
2022-09-12T21:57:12.418Z,13.65
2022-09-12T21:59:40.131Z,13.68
2022-09-12T22:02:06.844Z,13.62
2022-09-12T22:04:33.172Z,13.52
2022-09-12T22:06:59.492Z,13.44
2022-09-12T22:09:25.850Z,13.36
2022-09-12T22:11:52.114Z,13.33
2022-09-12T22:14:18.728Z,13.39
2022-09-12T22:16:45.069Z,13.38
2022-09-12T22:19:11.450Z,13.34
2022-09-12T22:21:37.738Z,13.28
2022-09-12T22:24:04.182Z,13.16
2022-09-12T22:26:31.298Z,13.13
2022-09-12T22:28:57.940Z,13.07
2022-09-12T22:31:24.300Z,13.05
2022-09-12T22:33:50.697Z,13.01
2022-09-12T22:36:17.025Z,12.99
2022-09-12T22:38:43.759Z,12.98
2022-09-12T22:41:11.769Z,12.96
2022-09-12T22:43:38.418Z,12.94
2022-09-12T22:46:09.995Z,12.94
2022-09-12T22:48:36.707Z,13.01
2022-09-12T22:51:03.381Z,12.99
2022-09-12T22:53:29.724Z,12.89
2022-09-12T22:55:56.074Z,12.86
2022-09-12T22:58:22.462Z,12.86
2022-09-12T23:00:50.203Z,12.82
2022-09-12T23:03:20.589Z,12.75
2022-09-12T23:05:47.877Z,12.67
2022-09-12T23:08:15.373Z,12.61
2022-09-12T23:10:41.989Z,12.58
2022-09-12T23:13:08.337Z,12.55
2022-09-12T23:15:34.696Z,12.57
2022-09-12T23:18:01.159Z,12.59
2022-09-12T23:20:27.816Z,12.55
2022-09-12T23:22:54.132Z,12.48
2022-09-12T23:25:21.247Z,12.42
2022-09-12T23:27:47.751Z,12.40
2022-09-12T23:30:14.100Z,12.42
2022-09-12T23:32:40.778Z,12.44
2022-09-12T23:35:07.519Z,12.50
2022-09-12T23:37:33.995Z,12.57
2022-09-12T23:40:00.707Z,12.58
2022-09-12T23:42:27.167Z,12.58
2022-09-12T23:44:53.844Z,12.54
2022-09-12T23:47:21.392Z,12.42
2022-09-12T23:49:47.691Z,12.34
2022-09-12T23:52:14.027Z,12.33
2022-09-12T23:54:40.353Z,12.33
2022-09-12T23:57:06.659Z,12.31
2022-09-12T23:59:32.953Z,12.28
